createdAt,value
2023-02-21T00:00:09.334Z,8.00
2023-02-21T00:00:18.809Z,8.00
2023-02-21T00:00:28.261Z,8.10
2023-02-21T00:00:37.661Z,8.00
2023-02-21T00:00:47.151Z,8.00
2023-02-21T00:00:56.567Z,8.10
2023-02-21T00:01:06.044Z,8.00
2023-02-21T00:01:15.706Z,8.10
2023-02-21T00:01:24.885Z,8.10
2023-02-21T00:01:34.279Z,8.00
2023-02-21T00:01:43.693Z,8.00
2023-02-21T00:01:53.173Z,8.10
2023-02-21T00:02:02.631Z,8.00
2023-02-21T00:02:12.023Z,8.00
2023-02-21T00:02:21.483Z,8.00
2023-02-21T00:02:30.868Z,8.00
2023-02-21T00:02:40.372Z,8.00
2023-02-21T00:02:59.181Z,8.00
2023-02-21T00:03:08.604Z,8.00
2023-02-21T00:03:17.996Z,8.00
2023-02-21T00:03:27.412Z,8.00
2023-02-21T00:03:36.805Z,8.00
2023-02-21T00:03:46.221Z,8.00
2023-02-21T00:03:55.626Z,8.00
2023-02-21T00:04:05.022Z,8.00
2023-02-21T00:04:14.622Z,8.00
2023-02-21T00:04:24.006Z,8.00
2023-02-21T00:04:33.496Z,8.00
2023-02-21T00:04:42.943Z,8.00
2023-02-21T00:04:52.468Z,8.00
2023-02-21T00:05:02.450Z,8.00
2023-02-21T00:05:12.126Z,8.00
2023-02-21T00:05:21.530Z,8.00
2023-02-21T00:05:31.109Z,8.00
2023-02-21T00:05:40.492Z,8.00
2023-02-21T00:05:59.182Z,8.00
2023-02-21T00:06:08.632Z,8.00
2023-02-21T00:06:18.028Z,8.00
2023-02-21T00:06:27.411Z,8.00
2023-02-21T00:06:36.835Z,8.00
2023-02-21T00:06:46.235Z,8.00
2023-02-21T00:06:55.646Z,8.00
2023-02-21T00:07:05.069Z,8.00
2023-02-21T00:07:14.507Z,8.00
2023-02-21T00:07:23.930Z,8.00
2023-02-21T00:07:33.514Z,8.00
2023-02-21T00:07:43.373Z,8.00
2023-02-21T00:07:52.792Z,8.00
2023-02-21T00:08:02.202Z,8.00
2023-02-21T00:08:11.637Z,8.00
2023-02-21T00:08:21.077Z,8.00
2023-02-21T00:08:30.486Z,8.00
2023-02-21T00:08:49.281Z,8.00
2023-02-21T00:08:58.677Z,8.00
2023-02-21T00:09:08.080Z,8.00
2023-02-21T00:09:17.487Z,8.00
2023-02-21T00:09:26.915Z,8.00
2023-02-21T00:09:36.318Z,8.00
2023-02-21T00:09:45.731Z,8.00
2023-02-21T00:09:58.011Z,8.00
2023-02-21T00:10:07.958Z,8.00
2023-02-21T00:10:17.328Z,8.00
2023-02-21T00:10:26.718Z,8.00
2023-02-21T00:10:36.117Z,8.00
2023-02-21T00:10:45.535Z,8.00
2023-02-21T00:10:54.972Z,8.00
2023-02-21T00:11:04.355Z,8.00
2023-02-21T00:11:14.091Z,8.00
2023-02-21T00:11:24.047Z,7.90
2023-02-21T00:11:32.620Z,8.00
2023-02-21T00:11:42.041Z,7.90
2023-02-21T00:11:51.467Z,8.00
2023-02-21T00:12:00.881Z,8.00
2023-02-21T00:12:10.298Z,8.00
2023-02-21T00:12:29.157Z,8.00
2023-02-21T00:12:38.560Z,8.00
2023-02-21T00:12:47.990Z,8.00
2023-02-21T00:12:57.379Z,8.00
2023-02-21T00:13:06.777Z,8.00
2023-02-21T00:13:16.175Z,8.00
2023-02-21T00:13:25.568Z,8.00
2023-02-21T00:13:34.996Z,8.00
2023-02-21T00:13:44.408Z,8.00
2023-02-21T00:13:53.806Z,8.00
2023-02-21T00:14:03.206Z,8.00
2023-02-21T00:14:12.614Z,8.00
2023-02-21T00:14:22.039Z,8.00
2023-02-21T00:14:31.617Z,8.00
2023-02-21T00:14:41.028Z,7.90
2023-02-21T00:14:50.487Z,8.00
2023-02-21T00:15:09.322Z,8.00
2023-02-21T00:15:18.757Z,8.00
2023-02-21T00:15:28.198Z,8.00
2023-02-21T00:15:37.610Z,8.00
2023-02-21T00:15:47.627Z,8.00
2023-02-21T00:15:57.045Z,8.00
2023-02-21T00:16:06.462Z,8.00
2023-02-21T00:16:15.964Z,8.00
2023-02-21T00:16:25.404Z,8.00
2023-02-21T00:16:34.820Z,8.00
2023-02-21T00:16:44.204Z,8.00
2023-02-21T00:16:53.616Z,8.00
2023-02-21T00:17:03.023Z,8.00
2023-02-21T00:17:12.435Z,8.00
2023-02-21T00:17:21.856Z,8.00
2023-02-21T00:17:31.400Z,8.00
2023-02-21T00:17:40.827Z,8.00
2023-02-21T00:17:50.249Z,8.00
2023-02-21T00:18:09.073Z,7.90
2023-02-21T00:18:18.483Z,7.90
2023-02-21T00:18:27.931Z,7.90
2023-02-21T00:18:37.357Z,7.90
2023-02-21T00:18:46.758Z,7.90
2023-02-21T00:18:56.195Z,8.00
2023-02-21T00:19:05.589Z,8.00
2023-02-21T00:19:15.004Z,8.00
2023-02-21T00:19:24.434Z,8.00
2023-02-21T00:19:33.849Z,7.90
2023-02-21T00:19:43.284Z,8.00
2023-02-21T00:19:52.668Z,8.00
2023-02-21T00:20:02.090Z,8.00
2023-02-21T00:20:11.473Z,8.00
2023-02-21T00:20:20.895Z,8.00
2023-02-21T00:20:30.348Z,7.90
2023-02-21T00:20:49.189Z,7.90
2023-02-21T00:20:58.602Z,7.90
2023-02-21T00:21:08.010Z,8.00
2023-02-21T00:21:17.434Z,8.00
2023-02-21T00:21:26.838Z,8.00
2023-02-21T00:21:36.272Z,8.00
2023-02-21T00:21:45.694Z,7.90
2023-02-21T00:21:55.146Z,8.00
2023-02-21T00:22:04.557Z,8.00
2023-02-21T00:22:13.972Z,8.00
2023-02-21T00:22:23.468Z,8.00
2023-02-21T00:22:32.879Z,8.00
2023-02-21T00:22:42.304Z,8.00
2023-02-21T00:22:51.727Z,8.00
2023-02-21T00:23:01.150Z,8.00
2023-02-21T00:23:10.569Z,8.00
2023-02-21T00:23:29.421Z,8.00
2023-02-21T00:23:38.839Z,8.00
2023-02-21T00:23:48.269Z,8.10
2023-02-21T00:23:57.691Z,8.00
2023-02-21T00:24:07.128Z,8.00
2023-02-21T00:24:16.556Z,8.10
2023-02-21T00:24:25.965Z,8.10
2023-02-21T00:24:35.388Z,8.10
2023-02-21T00:24:44.761Z,8.10
2023-02-21T00:24:54.199Z,8.10
2023-02-21T00:25:03.674Z,8.10
2023-02-21T00:25:13.110Z,8.10
2023-02-21T00:25:22.508Z,8.10
2023-02-21T00:25:31.898Z,8.10
2023-02-21T00:25:41.326Z,8.00
2023-02-21T00:25:50.739Z,8.10
2023-02-21T00:26:00.166Z,8.00
2023-02-21T00:26:18.946Z,8.10
2023-02-21T00:26:28.353Z,8.00
2023-02-21T00:26:37.808Z,8.10
2023-02-21T00:26:47.182Z,8.00
2023-02-21T00:26:56.572Z,8.00
2023-02-21T00:27:06.008Z,8.00
2023-02-21T00:27:15.421Z,8.00
2023-02-21T00:27:24.844Z,8.00
2023-02-21T00:27:34.281Z,8.00
2023-02-21T00:27:43.677Z,8.00
2023-02-21T00:27:53.095Z,8.00
2023-02-21T00:28:02.504Z,8.00
2023-02-21T00:28:11.920Z,8.00
2023-02-21T00:28:21.392Z,7.90
2023-02-21T00:28:30.805Z,8.10
2023-02-21T00:28:40.214Z,8.00
2023-02-21T00:28:59.054Z,8.00
2023-02-21T00:29:08.461Z,8.00
2023-02-21T00:29:17.872Z,8.00
2023-02-21T00:29:27.323Z,8.00
2023-02-21T00:29:36.725Z,8.00
2023-02-21T00:29:46.172Z,8.00
2023-02-21T00:29:55.580Z,8.00
2023-02-21T00:30:05.076Z,8.00
2023-02-21T00:30:14.483Z,8.00
2023-02-21T00:30:23.969Z,8.00
2023-02-21T00:30:33.322Z,8.00
2023-02-21T00:30:42.692Z,8.00
2023-02-21T00:30:52.198Z,8.00
2023-02-21T00:31:01.511Z,8.00
2023-02-21T00:31:10.922Z,8.00
2023-02-21T00:31:20.377Z,8.00
2023-02-21T00:31:39.146Z,8.00
2023-02-21T00:31:48.583Z,8.00
2023-02-21T00:31:58.012Z,8.00
2023-02-21T00:32:07.437Z,8.00
2023-02-21T00:32:16.901Z,8.00
2023-02-21T00:32:26.344Z,8.00
2023-02-21T00:32:35.807Z,8.00
2023-02-21T00:32:45.289Z,8.00
2023-02-21T00:32:54.832Z,8.00
2023-02-21T00:33:06.962Z,8.00
2023-02-21T00:33:13.568Z,8.00
2023-02-21T00:33:22.835Z,8.00
2023-02-21T00:33:32.246Z,8.00
2023-02-21T00:33:41.622Z,8.00
2023-02-21T00:33:51.046Z,8.00
2023-02-21T00:34:00.478Z,8.00
2023-02-21T00:34:19.323Z,8.00
2023-02-21T00:34:28.714Z,8.00
2023-02-21T00:34:38.138Z,7.90
2023-02-21T00:34:47.575Z,8.00
2023-02-21T00:34:56.987Z,7.90
2023-02-21T00:35:06.440Z,8.00
2023-02-21T00:35:15.841Z,7.90
2023-02-21T00:35:25.242Z,8.00
2023-02-21T00:35:34.649Z,8.00
2023-02-21T00:35:44.052Z,7.90
2023-02-21T00:35:53.474Z,7.90
2023-02-21T00:36:02.895Z,7.90
2023-02-21T00:36:12.353Z,7.90
2023-02-21T00:36:21.756Z,7.90
2023-02-21T00:36:31.245Z,8.00
2023-02-21T00:36:40.652Z,7.90
2023-02-21T00:36:50.054Z,7.90
2023-02-21T00:37:08.919Z,7.90
2023-02-21T00:37:18.317Z,8.00
2023-02-21T00:37:31.127Z,8.00
2023-02-21T00:37:40.522Z,8.00
2023-02-21T00:37:49.952Z,8.00
2023-02-21T00:37:59.375Z,7.90
2023-02-21T00:38:08.759Z,7.90
2023-02-21T00:38:18.153Z,7.90
2023-02-21T00:38:27.570Z,7.90
2023-02-21T00:38:37.005Z,7.90
2023-02-21T00:38:46.427Z,7.90
2023-02-21T00:38:55.807Z,7.90
2023-02-21T00:39:05.252Z,7.90
2023-02-21T00:39:14.647Z,7.90
2023-02-21T00:39:24.040Z,7.90
2023-02-21T00:39:33.471Z,7.90
2023-02-21T00:39:42.891Z,7.90
2023-02-21T00:39:52.337Z,7.90
2023-02-21T00:40:01.735Z,7.90
2023-02-21T00:40:11.125Z,7.90
2023-02-21T00:40:20.517Z,7.90
2023-02-21T00:40:39.369Z,7.90
2023-02-21T00:40:48.827Z,7.90
2023-02-21T00:40:58.239Z,7.90
2023-02-21T00:41:07.654Z,7.90
2023-02-21T00:41:17.356Z,7.90
2023-02-21T00:41:26.511Z,7.90
2023-02-21T00:41:35.920Z,7.90
2023-02-21T00:41:45.323Z,7.90
2023-02-21T00:41:54.712Z,7.90
2023-02-21T00:42:04.122Z,7.90
2023-02-21T00:42:13.526Z,7.90
2023-02-21T00:42:22.937Z,7.90
2023-02-21T00:42:32.366Z,7.90
2023-02-21T00:42:41.834Z,7.90
2023-02-21T00:42:51.302Z,7.90
2023-02-21T00:43:00.766Z,7.90
2023-02-21T00:43:10.174Z,7.90
2023-02-21T00:43:28.995Z,7.90
2023-02-21T00:43:38.413Z,7.90
2023-02-21T00:43:47.842Z,7.90
2023-02-21T00:43:57.262Z,7.90
2023-02-21T00:44:06.647Z,7.90
2023-02-21T00:44:16.056Z,7.90
2023-02-21T00:44:25.462Z,7.90
2023-02-21T00:44:34.895Z,7.90
2023-02-21T00:44:44.370Z,7.90
2023-02-21T00:44:53.843Z,7.90
2023-02-21T00:45:03.296Z,7.90
2023-02-21T00:45:12.712Z,7.80
2023-02-21T00:45:22.142Z,7.90
2023-02-21T00:45:31.511Z,7.90
2023-02-21T00:45:40.950Z,7.90
2023-02-21T00:45:50.385Z,7.90
2023-02-21T00:46:09.255Z,7.90
2023-02-21T00:46:18.701Z,7.90
2023-02-21T00:46:27.975Z,8.00
2023-02-21T00:46:37.431Z,7.90
2023-02-21T00:46:46.901Z,8.00
2023-02-21T00:46:56.315Z,7.90
2023-02-21T00:47:05.751Z,7.90
2023-02-21T00:47:15.152Z,8.00
2023-02-21T00:47:24.647Z,8.00
2023-02-21T00:47:34.061Z,8.00
2023-02-21T00:47:43.462Z,7.90
2023-02-21T00:47:52.881Z,8.00
2023-02-21T00:48:04.938Z,8.00
2023-02-21T00:48:14.350Z,7.90
2023-02-21T00:48:23.795Z,8.00
2023-02-21T00:48:33.186Z,8.00
2023-02-21T00:48:42.580Z,8.00
2023-02-21T00:48:52.002Z,7.90
2023-02-21T00:49:01.428Z,7.90
2023-02-21T00:49:10.966Z,7.90
2023-02-21T00:49:20.389Z,7.90
2023-02-21T00:49:39.271Z,7.90
2023-02-21T00:49:48.723Z,7.90
2023-02-21T00:49:58.130Z,7.90
2023-02-21T00:50:07.541Z,7.90
2023-02-21T00:50:16.967Z,7.90
2023-02-21T00:50:26.404Z,7.90
2023-02-21T00:50:35.880Z,7.90
2023-02-21T00:50:45.283Z,7.90
2023-02-21T00:50:54.727Z,7.90
2023-02-21T00:51:04.144Z,7.90
2023-02-21T00:51:14.545Z,7.90
2023-02-21T00:51:23.014Z,7.90
2023-02-21T00:51:32.451Z,7.90
2023-02-21T00:51:41.854Z,7.90
2023-02-21T00:51:51.346Z,7.90
2023-02-21T00:52:00.750Z,7.90
2023-02-21T00:52:10.169Z,7.90
2023-02-21T00:52:29.015Z,7.90
2023-02-21T00:52:38.881Z,7.90
2023-02-21T00:52:48.310Z,7.90
2023-02-21T00:52:57.736Z,7.90
2023-02-21T00:53:07.169Z,7.90
2023-02-21T00:53:16.593Z,7.90
2023-02-21T00:53:25.978Z,7.90
2023-02-21T00:53:35.405Z,7.90
2023-02-21T00:53:44.844Z,7.90
2023-02-21T00:53:54.249Z,8.00
2023-02-21T00:54:03.647Z,8.00
2023-02-21T00:54:13.051Z,8.00
2023-02-21T00:54:22.496Z,8.00
2023-02-21T00:54:31.896Z,7.90
2023-02-21T00:54:41.350Z,7.90
2023-02-21T00:54:50.925Z,8.00
2023-02-21T00:55:00.243Z,8.00
2023-02-21T00:55:19.058Z,8.00
2023-02-21T00:55:28.478Z,7.90
2023-02-21T00:55:37.905Z,7.90
2023-02-21T00:55:47.325Z,8.00
2023-02-21T00:55:56.747Z,8.00
2023-02-21T00:56:06.166Z,7.90
2023-02-21T00:56:15.577Z,8.00
2023-02-21T00:56:24.968Z,8.00
2023-02-21T00:56:34.370Z,7.90
2023-02-21T00:56:43.759Z,8.00
2023-02-21T00:56:53.186Z,8.00
2023-02-21T00:57:02.635Z,8.00
2023-02-21T00:57:12.064Z,8.00
2023-02-21T00:57:21.567Z,8.00
2023-02-21T00:57:31.008Z,8.00
2023-02-21T00:57:40.490Z,7.90
2023-02-21T00:57:59.358Z,8.00
2023-02-21T00:58:08.806Z,7.90
2023-02-21T00:58:18.269Z,7.90
2023-02-21T00:58:27.697Z,7.90
2023-02-21T00:58:37.099Z,7.90
2023-02-21T00:58:46.568Z,8.00
2023-02-21T00:58:55.997Z,8.00
2023-02-21T00:59:05.395Z,7.90
2023-02-21T00:59:14.825Z,8.00
2023-02-21T00:59:24.318Z,8.00
2023-02-21T00:59:33.742Z,7.90
2023-02-21T00:59:43.223Z,8.00
2023-02-21T00:59:52.649Z,8.00
2023-02-21T01:00:02.128Z,8.00
2023-02-21T01:00:11.481Z,8.00
2023-02-21T01:00:20.896Z,7.90
2023-02-21T01:00:30.295Z,8.00
2023-02-21T01:00:49.474Z,8.00
2023-02-21T01:00:58.961Z,8.00
2023-02-21T01:01:08.443Z,8.00
2023-02-21T01:01:18.130Z,8.00
2023-02-21T01:01:27.270Z,8.00
2023-02-21T01:01:36.769Z,8.00
2023-02-21T01:01:46.192Z,8.00
2023-02-21T01:01:55.497Z,8.00
2023-02-21T01:02:04.915Z,8.00
2023-02-21T01:02:14.396Z,8.00
2023-02-21T01:02:23.760Z,8.00
2023-02-21T01:02:33.168Z,8.00
2023-02-21T01:02:42.700Z,8.00
2023-02-21T01:02:52.147Z,8.00
2023-02-21T01:03:01.543Z,8.00
2023-02-21T01:03:10.922Z,8.00
2023-02-21T01:03:20.383Z,8.00
2023-02-21T01:03:39.314Z,8.00
2023-02-21T01:03:48.723Z,8.00
2023-02-21T01:03:58.184Z,8.00
2023-02-21T01:04:07.602Z,8.00
2023-02-21T01:04:17.072Z,8.00
2023-02-21T01:04:26.468Z,8.00
2023-02-21T01:04:35.904Z,8.00
2023-02-21T01:04:45.276Z,8.00
2023-02-21T01:04:54.718Z,8.10
2023-02-21T01:05:04.116Z,8.10
2023-02-21T01:05:13.540Z,8.10
2023-02-21T01:05:22.966Z,8.00
2023-02-21T01:05:32.386Z,8.00
2023-02-21T01:05:41.802Z,8.10
2023-02-21T01:05:51.216Z,8.10
2023-02-21T01:06:00.645Z,8.10
2023-02-21T01:06:10.065Z,8.10
2023-02-21T01:06:28.904Z,8.10
2023-02-21T01:06:38.328Z,8.10
2023-02-21T01:06:47.749Z,8.10
2023-02-21T01:06:57.182Z,8.10
2023-02-21T01:07:06.573Z,8.10
2023-02-21T01:07:15.969Z,8.10
2023-02-21T01:07:25.393Z,8.10
2023-02-21T01:07:34.809Z,8.10
2023-02-21T01:07:44.233Z,8.20
2023-02-21T01:07:53.648Z,8.20
2023-02-21T01:08:03.073Z,8.20
2023-02-21T01:08:12.503Z,8.20
2023-02-21T01:08:21.921Z,8.20
2023-02-21T01:08:31.337Z,8.20
2023-02-21T01:08:40.757Z,8.20
2023-02-21T01:08:50.196Z,8.20
2023-02-21T01:09:08.998Z,8.20
2023-02-21T01:09:18.410Z,8.20
2023-02-21T01:09:27.826Z,8.20
2023-02-21T01:09:37.240Z,8.20
2023-02-21T01:09:46.710Z,8.20
2023-02-21T01:09:56.127Z,8.20
2023-02-21T01:10:05.544Z,8.20
2023-02-21T01:10:15.008Z,8.20
2023-02-21T01:10:24.487Z,8.20
2023-02-21T01:10:33.901Z,8.10
2023-02-21T01:10:43.385Z,8.10
2023-02-21T01:10:52.793Z,8.10
2023-02-21T01:11:02.220Z,8.20
2023-02-21T01:11:11.960Z,8.10
2023-02-21T01:11:21.067Z,8.20
2023-02-21T01:11:30.478Z,8.20
2023-02-21T01:11:49.422Z,8.10
2023-02-21T01:11:58.853Z,8.20
2023-02-21T01:12:08.269Z,8.20
2023-02-21T01:12:17.687Z,8.10
2023-02-21T01:12:27.095Z,8.20
2023-02-21T01:12:36.489Z,8.20
2023-02-21T01:12:45.949Z,8.10
2023-02-21T01:12:55.369Z,8.10
2023-02-21T01:13:04.804Z,8.20
2023-02-21T01:13:14.214Z,8.10
2023-02-21T01:13:23.694Z,8.10
2023-02-21T01:13:33.094Z,8.10
2023-02-21T01:13:42.520Z,8.10
2023-02-21T01:13:51.918Z,8.10
2023-02-21T01:14:01.422Z,8.20
2023-02-21T01:14:10.839Z,8.20
2023-02-21T01:14:20.300Z,8.20
2023-02-21T01:14:39.202Z,8.10
2023-02-21T01:14:48.628Z,8.20
2023-02-21T01:14:58.048Z,8.10
2023-02-21T01:15:07.526Z,8.10
2023-02-21T01:15:16.963Z,8.10
2023-02-21T01:15:26.350Z,8.10
2023-02-21T01:15:35.822Z,8.10
2023-02-21T01:15:45.241Z,8.10
2023-02-21T01:15:54.620Z,8.10
2023-02-21T01:16:04.073Z,8.10
2023-02-21T01:16:13.494Z,8.10
2023-02-21T01:16:22.859Z,8.10
2023-02-21T01:16:32.256Z,8.10
2023-02-21T01:16:41.675Z,8.10
2023-02-21T01:16:51.077Z,8.10
2023-02-21T01:17:12.500Z,8.10
2023-02-21T01:17:19.414Z,8.10
2023-02-21T01:17:28.813Z,8.10
2023-02-21T01:17:38.249Z,8.10
2023-02-21T01:17:47.709Z,8.10
2023-02-21T01:17:57.118Z,8.10
2023-02-21T01:18:06.524Z,8.10
2023-02-21T01:18:15.933Z,8.10
2023-02-21T01:18:25.374Z,8.10
2023-02-21T01:18:34.869Z,8.10
2023-02-21T01:18:44.304Z,8.10
2023-02-21T01:18:53.683Z,8.10
2023-02-21T01:19:03.125Z,8.10
2023-02-21T01:19:12.539Z,8.10
2023-02-21T01:19:21.934Z,8.10
2023-02-21T01:19:31.379Z,8.10
2023-02-21T01:19:40.783Z,8.20
2023-02-21T01:19:50.200Z,8.10
2023-02-21T01:20:09.023Z,8.10
2023-02-21T01:20:18.419Z,8.10
2023-02-21T01:20:27.846Z,8.10
2023-02-21T01:20:37.271Z,8.10
2023-02-21T01:20:46.696Z,8.10
2023-02-21T01:20:56.086Z,8.10
2023-02-21T01:21:05.523Z,8.10
2023-02-21T01:21:15.343Z,8.10
2023-02-21T01:21:24.364Z,8.10
2023-02-21T01:21:33.763Z,8.10
2023-02-21T01:21:43.189Z,8.10
2023-02-21T01:21:52.567Z,8.10
2023-02-21T01:22:01.988Z,8.10
2023-02-21T01:22:11.512Z,8.10
2023-02-21T01:22:20.904Z,8.10
2023-02-21T01:22:30.290Z,8.10
2023-02-21T01:22:49.172Z,8.10
2023-02-21T01:22:58.594Z,8.10
2023-02-21T01:23:07.989Z,8.10
2023-02-21T01:23:17.670Z,8.10
2023-02-21T01:23:27.085Z,8.10
2023-02-21T01:23:36.503Z,8.10
2023-02-21T01:23:45.925Z,8.10
2023-02-21T01:23:55.332Z,8.10
2023-02-21T01:24:04.722Z,8.10
2023-02-21T01:24:14.089Z,8.20
2023-02-21T01:24:23.533Z,8.10
2023-02-21T01:24:32.966Z,8.10
2023-02-21T01:24:42.415Z,8.10
2023-02-21T01:24:51.840Z,8.10
2023-02-21T01:25:01.266Z,8.20
2023-02-21T01:25:10.669Z,8.20
2023-02-21T01:25:20.085Z,8.10
2023-02-21T01:25:38.916Z,8.10
2023-02-21T01:25:48.396Z,8.20
2023-02-21T01:25:57.893Z,8.10
2023-02-21T01:26:07.292Z,8.10
2023-02-21T01:26:16.689Z,8.10
2023-02-21T01:26:26.096Z,8.20
2023-02-21T01:26:35.512Z,8.20
2023-02-21T01:26:44.932Z,8.30
2023-02-21T01:26:54.350Z,8.20
2023-02-21T01:27:03.819Z,8.20
2023-02-21T01:27:13.250Z,8.20
2023-02-21T01:27:22.661Z,8.20
2023-02-21T01:27:32.045Z,8.20
2023-02-21T01:27:41.450Z,8.20
2023-02-21T01:27:50.897Z,8.20
2023-02-21T01:28:00.275Z,8.20
2023-02-21T01:28:19.078Z,8.20
2023-02-21T01:28:28.486Z,8.20
2023-02-21T01:28:37.868Z,8.20
2023-02-21T01:28:47.253Z,8.20
2023-02-21T01:28:56.681Z,8.20
2023-02-21T01:29:06.100Z,8.20
2023-02-21T01:29:15.529Z,8.20
2023-02-21T01:29:24.927Z,8.20
2023-02-21T01:29:34.342Z,8.20
2023-02-21T01:29:43.830Z,8.20
2023-02-21T01:29:53.246Z,8.20
2023-02-21T01:30:02.897Z,8.20
2023-02-21T01:30:12.140Z,8.20
2023-02-21T01:30:21.558Z,8.20
2023-02-21T01:30:31.023Z,8.20
2023-02-21T01:30:40.530Z,8.20
2023-02-21T01:30:59.189Z,8.20
2023-02-21T01:31:08.633Z,8.20
2023-02-21T01:31:18.293Z,8.20
2023-02-21T01:31:27.442Z,8.20
2023-02-21T01:31:36.838Z,8.20
2023-02-21T01:31:46.255Z,8.20
2023-02-21T01:31:55.687Z,8.20
2023-02-21T01:32:05.101Z,8.20
2023-02-21T01:32:14.621Z,8.20
2023-02-21T01:32:24.018Z,8.20
2023-02-21T01:32:33.531Z,8.20
2023-02-21T01:32:42.813Z,8.20
2023-02-21T01:32:52.251Z,8.20
2023-02-21T01:33:01.719Z,8.20
2023-02-21T01:33:11.147Z,8.20
2023-02-21T01:33:20.588Z,8.20
2023-02-21T01:33:39.520Z,8.20
2023-02-21T01:33:48.947Z,8.20
2023-02-21T01:33:58.352Z,8.20
2023-02-21T01:34:07.895Z,8.20
2023-02-21T01:34:17.327Z,8.20
2023-02-21T01:34:26.736Z,8.20
2023-02-21T01:34:36.387Z,8.20
2023-02-21T01:34:45.597Z,8.20
2023-02-21T01:34:55.020Z,8.20
2023-02-21T01:35:04.440Z,8.20
2023-02-21T01:35:13.893Z,8.20
2023-02-21T01:35:23.305Z,8.20
2023-02-21T01:35:32.713Z,8.20
2023-02-21T01:35:42.151Z,8.20
2023-02-21T01:35:51.723Z,8.20
2023-02-21T01:36:01.146Z,8.20
2023-02-21T01:36:10.613Z,8.20
2023-02-21T01:36:29.451Z,8.20
2023-02-21T01:36:38.878Z,8.20
2023-02-21T01:36:48.307Z,8.20
2023-02-21T01:36:57.701Z,8.20
2023-02-21T01:37:07.113Z,8.20
2023-02-21T01:37:19.129Z,8.20
2023-02-21T01:37:28.544Z,8.20
2023-02-21T01:37:37.953Z,8.20
2023-02-21T01:37:47.363Z,8.20
2023-02-21T01:37:56.845Z,8.20
2023-02-21T01:38:06.244Z,8.20
2023-02-21T01:38:15.656Z,8.20
2023-02-21T01:38:25.077Z,8.20
2023-02-21T01:38:34.493Z,8.20
2023-02-21T01:38:43.927Z,8.20
2023-02-21T01:38:53.347Z,8.20
2023-02-21T01:39:02.763Z,8.30
2023-02-21T01:39:12.190Z,8.30
2023-02-21T01:39:21.670Z,8.20
2023-02-21T01:39:31.137Z,8.20
2023-02-21T01:39:40.539Z,8.30
2023-02-21T01:39:59.393Z,8.30
2023-02-21T01:40:08.899Z,8.30
2023-02-21T01:40:18.341Z,8.30
2023-02-21T01:40:27.779Z,8.30
2023-02-21T01:40:37.164Z,8.30
2023-02-21T01:40:46.568Z,8.30
2023-02-21T01:40:56.039Z,8.30
2023-02-21T01:41:05.509Z,8.30
2023-02-21T01:41:15.321Z,8.30
2023-02-21T01:41:24.337Z,8.30
2023-02-21T01:41:33.728Z,8.30
2023-02-21T01:41:43.151Z,8.30
2023-02-21T01:41:52.580Z,8.30
2023-02-21T01:42:01.996Z,8.30
2023-02-21T01:42:11.408Z,8.30
2023-02-21T01:42:20.805Z,8.30
2023-02-21T01:42:30.293Z,8.30
2023-02-21T01:42:49.161Z,8.30
2023-02-21T01:42:58.621Z,8.30
2023-02-21T01:43:08.056Z,8.20
2023-02-21T01:43:17.498Z,8.30
2023-02-21T01:43:26.922Z,8.30
2023-02-21T01:43:36.410Z,8.30
2023-02-21T01:43:45.836Z,8.30
2023-02-21T01:43:55.239Z,8.30
2023-02-21T01:44:04.648Z,8.30
2023-02-21T01:44:14.051Z,8.30
2023-02-21T01:44:23.493Z,8.30
2023-02-21T01:44:32.912Z,8.30
2023-02-21T01:44:42.321Z,8.30
2023-02-21T01:44:51.796Z,8.30
2023-02-21T01:45:01.192Z,8.30
2023-02-21T01:45:10.847Z,8.30
2023-02-21T01:45:20.252Z,8.30
2023-02-21T01:45:39.090Z,8.30
2023-02-21T01:45:48.577Z,8.30
2023-02-21T01:45:58.072Z,8.30
2023-02-21T01:46:07.484Z,8.30
2023-02-21T01:46:16.945Z,8.30
2023-02-21T01:46:26.433Z,8.30
2023-02-21T01:46:35.818Z,8.30
2023-02-21T01:46:45.227Z,8.30
2023-02-21T01:46:54.657Z,8.30
2023-02-21T01:47:04.072Z,8.30
2023-02-21T01:47:13.487Z,8.30
2023-02-21T01:47:22.883Z,8.30
2023-02-21T01:47:32.312Z,8.30
2023-02-21T01:47:41.734Z,8.20
2023-02-21T01:47:51.164Z,8.30
2023-02-21T01:48:00.595Z,8.30
2023-02-21T01:48:10.074Z,8.30
2023-02-21T01:48:28.934Z,8.30
2023-02-21T01:48:38.360Z,8.30
2023-02-21T01:48:47.787Z,8.30
2023-02-21T01:48:57.176Z,8.30
2023-02-21T01:49:06.608Z,8.30
2023-02-21T01:49:16.028Z,8.30
2023-02-21T01:49:25.457Z,8.30
2023-02-21T01:49:34.886Z,8.30
2023-02-21T01:49:44.272Z,8.30
2023-02-21T01:49:53.719Z,8.30
2023-02-21T01:50:03.159Z,8.30
2023-02-21T01:50:12.572Z,8.30
2023-02-21T01:50:21.978Z,8.30
2023-02-21T01:50:31.438Z,8.30
2023-02-21T01:50:40.863Z,8.30
2023-02-21T01:50:50.275Z,8.30
2023-02-21T01:51:09.086Z,8.30
2023-02-21T01:51:18.504Z,8.30
2023-02-21T01:51:27.895Z,8.30
2023-02-21T01:51:37.321Z,8.30
2023-02-21T01:51:46.761Z,8.30
2023-02-21T01:51:56.190Z,8.30
2023-02-21T01:52:05.623Z,8.30
2023-02-21T01:52:15.026Z,8.30
2023-02-21T01:52:24.454Z,8.30
2023-02-21T01:52:33.885Z,8.30
2023-02-21T01:52:43.288Z,8.30
2023-02-21T01:52:52.722Z,8.30
2023-02-21T01:53:02.169Z,8.20
2023-02-21T01:53:11.668Z,8.30
2023-02-21T01:53:21.117Z,8.30
2023-02-21T01:53:30.531Z,8.30
2023-02-21T01:53:49.393Z,8.40
2023-02-21T01:53:58.796Z,8.30
2023-02-21T01:54:08.227Z,8.30
2023-02-21T01:54:17.637Z,8.30
2023-02-21T01:54:27.076Z,8.30
2023-02-21T01:54:36.481Z,8.30
2023-02-21T01:54:45.906Z,8.40
2023-02-21T01:54:55.353Z,8.40
2023-02-21T01:55:04.817Z,8.40
2023-02-21T01:55:14.275Z,8.30
2023-02-21T01:55:23.687Z,8.30
2023-02-21T01:55:33.102Z,8.40
2023-02-21T01:55:42.567Z,8.40
2023-02-21T01:55:52.028Z,8.40
2023-02-21T01:56:01.409Z,8.40
2023-02-21T01:56:10.827Z,8.40
2023-02-21T01:56:20.246Z,8.40
2023-02-21T01:56:39.152Z,8.40
2023-02-21T01:56:48.588Z,8.40
2023-02-21T01:56:57.994Z,8.40
2023-02-21T01:57:07.387Z,8.40
2023-02-21T01:57:16.781Z,8.40
2023-02-21T01:57:26.233Z,8.40
2023-02-21T01:57:35.650Z,8.50
2023-02-21T01:57:45.037Z,8.50
2023-02-21T01:57:54.468Z,8.50
2023-02-21T01:58:04.746Z,8.50
2023-02-21T01:58:13.305Z,8.50
2023-02-21T01:58:22.719Z,8.50
2023-02-21T01:58:32.142Z,8.50
2023-02-21T01:58:41.528Z,8.50
2023-02-21T01:58:50.922Z,8.50
2023-02-21T01:59:00.338Z,8.50
2023-02-21T01:59:19.215Z,8.50
2023-02-21T01:59:28.638Z,8.50
2023-02-21T01:59:38.033Z,8.50
2023-02-21T01:59:47.473Z,8.50
2023-02-21T01:59:56.891Z,8.50
2023-02-21T02:00:06.316Z,8.50
2023-02-21T02:00:15.803Z,8.50
2023-02-21T02:00:25.261Z,8.50
2023-02-21T02:00:34.678Z,8.50
2023-02-21T02:00:44.122Z,8.50
2023-02-21T02:00:53.558Z,8.50
2023-02-21T02:01:02.975Z,8.50
2023-02-21T02:01:12.748Z,8.50
2023-02-21T02:01:21.875Z,8.50
2023-02-21T02:01:31.341Z,8.50
2023-02-21T02:01:40.837Z,8.50
2023-02-21T02:01:50.232Z,8.50
2023-02-21T02:02:09.034Z,8.50
2023-02-21T02:02:18.457Z,8.50
2023-02-21T02:02:27.915Z,8.50
2023-02-21T02:02:37.367Z,8.50
2023-02-21T02:02:46.774Z,8.50
2023-02-21T02:02:56.170Z,8.50
2023-02-21T02:03:05.628Z,8.50
2023-02-21T02:03:15.033Z,8.50
2023-02-21T02:03:24.487Z,8.50
2023-02-21T02:03:33.884Z,8.50
2023-02-21T02:03:43.412Z,8.50
2023-02-21T02:03:52.846Z,8.50
2023-02-21T02:04:02.252Z,8.50
2023-02-21T02:04:11.691Z,8.50
2023-02-21T02:04:21.105Z,8.50
2023-02-21T02:04:30.553Z,8.50
2023-02-21T02:04:49.494Z,8.50
2023-02-21T02:04:58.924Z,8.50
2023-02-21T02:05:08.338Z,8.50
2023-02-21T02:05:17.923Z,8.50
2023-02-21T02:05:27.319Z,8.50
2023-02-21T02:05:36.787Z,8.50
2023-02-21T02:05:46.192Z,8.50
2023-02-21T02:05:55.648Z,8.50
2023-02-21T02:06:05.069Z,8.40
2023-02-21T02:06:14.500Z,8.50
2023-02-21T02:06:23.979Z,8.50
2023-02-21T02:06:34.291Z,8.50
2023-02-21T02:06:43.739Z,8.50
2023-02-21T02:06:53.164Z,8.50
2023-02-21T02:07:02.568Z,8.50
2023-02-21T02:07:11.971Z,8.50
2023-02-21T02:07:21.473Z,8.50
2023-02-21T02:07:30.878Z,8.50
2023-02-21T02:07:40.356Z,8.50
2023-02-21T02:07:59.215Z,8.50
2023-02-21T02:08:08.661Z,8.50
2023-02-21T02:08:18.119Z,8.50
2023-02-21T02:08:27.553Z,8.50
2023-02-21T02:08:36.976Z,8.50
2023-02-21T02:08:46.407Z,8.50
2023-02-21T02:08:55.805Z,8.50
2023-02-21T02:09:05.240Z,8.50
2023-02-21T02:09:14.676Z,8.50
2023-02-21T02:09:24.092Z,8.50
2023-02-21T02:09:33.526Z,8.50
2023-02-21T02:09:42.938Z,8.50
2023-02-21T02:09:52.360Z,8.50
2023-02-21T02:10:01.772Z,8.50
2023-02-21T02:10:11.207Z,8.50
2023-02-21T02:10:20.630Z,8.50
2023-02-21T02:10:30.124Z,8.50
2023-02-21T02:10:48.950Z,8.50
2023-02-21T02:10:58.379Z,8.50
2023-02-21T02:11:07.800Z,8.50
2023-02-21T02:11:17.259Z,8.50
2023-02-21T02:11:26.672Z,8.50
2023-02-21T02:11:36.062Z,8.50
2023-02-21T02:11:45.482Z,8.50
2023-02-21T02:11:54.894Z,8.50
2023-02-21T02:12:04.318Z,8.50
2023-02-21T02:12:13.716Z,8.50
2023-02-21T02:12:23.161Z,8.50
2023-02-21T02:12:32.551Z,8.50
2023-02-21T02:12:41.985Z,8.50
2023-02-21T02:12:51.430Z,8.50
2023-02-21T02:13:00.820Z,8.50